• Join FlightAware (Why Join?)
  • Login
  • US Flag 
09:36AM EDT


 

Airport Tracker/Info


-or-


 

Live Flight TrackerFlight Track Log ✈ UAL4625 ✈ 19-Apr-2013 ✈ KEWR - KCHS

Flight Track Log - Related Links

Times and Time Zones

All times are in EDT time to prevent confusion due to time zone crossing. See the UAL4625 flight status page for this flight to view local times or setup timezone preferences in your user account.

Time Position Orientation Groundspeed Altitude Reporting Facility
EDT Latitude Longitude Course Direction KTS MPH feet Rate Location/Type
08:40AM 40.6500 -74.1833 201° Southwest 160 184 1,600  Level New York TRACON
08:41AM 40.6167 -74.2167 217° Southwest 181 208 3,800 2,220 Climbing New York TRACON
08:42AM 40.5667 -74.2500 207° Southwest 220 253 6,100 600 Climbing New York TRACON
08:43AM 40.3162 -74.1581 159° South  Level FlightAware Approximate
08:44AM 40.2186 -74.1772 194° South  Level FlightAware Approximate
08:44AM 40.4197 -74.2142 169° South 247 284 6,000  Level New York Center
08:45AM 40.1214 -74.2143 201° Southwest  Level FlightAware Approximate
08:45AM 40.3606 -74.1703 151° Southeast 247 284 6,000  Level New York Center
08:46AM 40.3081 -74.1106 139° Southeast 253 291 8,200 2,160 Climbing New York Center
08:47AM 40.2608 -74.1600 219° Southwest 187 215 10,400 2,160 Climbing New York Center
08:48AM 40.1992 -74.2058 210° Southwest 219 252 12,500 1,500 Climbing New York Center
08:49AM 40.1256 -74.2211 189° South 274 315 13,400 1,080 Climbing New York Center
08:50AM 40.0392 -74.2419 190° South 306 352 14,600 1,380 Climbing Washington Center
08:51AM 39.9586 -74.3003 209° Southwest 319 367 16,100 1,500 Climbing Washington Center
08:52AM 39.8822 -74.3694 215° Southwest 326 375 17,700 1,440 Climbing Washington Center
08:53AM 39.8081 -74.4464 219° Southwest 342 394 19,000 1,260 Climbing Washington Center
08:54AM 39.7319 -74.5447 225° Southwest 348 400 20,300 1,260 Climbing Washington Center
08:55AM 39.6617 -74.6400 226° Southwest 360 414 21,600 1,200 Climbing Washington Center
08:56AM 39.5917 -74.7325 226° Southwest 366 421 22,800 1,200 Climbing Washington Center
08:57AM 39.5194 -74.8275 225° Southwest 366 421 24,100 1,200 Climbing Washington Center
08:58AM 39.4469 -74.9250 226° Southwest 366 421 25,200 1,020 Climbing Washington Center
08:59AM 39.3747 -75.0225 226° Southwest 372 428 26,200 900 Climbing Washington Center
09:00AM 39.2958 -75.1142 222° Southwest 377 434 27,100 900 Climbing Washington Center
09:01AM 39.2169 -75.2058 222° Southwest 382 440 28,100 900 Climbing Washington Center
09:02AM 39.1233 -75.2733 209° Southwest 387 445 29,000 900 Climbing Washington Center
09:03AM 39.0150 -75.3058 193° South 387 445 30,000 900 Climbing Washington Center
09:04AM 38.9047 -75.3408 194° South 398 458 30,900 900 Climbing Washington Center
09:05AM 38.7964 -75.3758 194° South 403 464 31,900 960 Climbing Washington Center
09:06AM 38.6817 -75.4081 192° South 410 472 32,900 900 Climbing Washington Center
09:07AM 38.5714 -75.4403 193° South 415 478 33,800 900 Climbing Washington Center
09:08AM 38.4628 -75.4803 196° South 415 478 34,800 900 Climbing Washington Center
09:09AM 38.3503 -75.5150 194° South 415 478 35,700 600 Climbing Washington Center
09:10AM 38.2564 -75.5917 213° Southwest 415 478 36,000 120 Climbing Washington Center
09:11AM 38.1647 -75.6814 218° Southwest 410 472 36,000  Level Washington Center
09:12AM 38.0667 -75.7711 216° Southwest 428 493 36,000  Level Washington Center
09:13AM 37.9683 -75.8658 217° Southwest 435 501 36,000  Level Washington Center
09:14AM 37.8703 -75.9547 216° Southwest 441 507 36,000  Level Washington Center
09:15AM 37.7928 -76.0281 217° Southwest 441 507 36,000  Level Washington Center
09:16AM 37.6903 -76.1325 219° Southwest 441 507 36,000  Level Washington Center
09:17AM 37.5833 -76.2208 213° Southwest 436 502 36,000  Level Washington Center
09:18AM 37.4869 -76.3089 216° Southwest 431 496 36,000  Level Washington Center
09:19AM 37.3925 -76.3969 217° Southwest 431 496 36,000  Level Washington Center
09:20AM 37.2981 -76.4822 216° Southwest 431 496 36,000  Level Washington Center
09:21AM 37.2014 -76.5697 216° Southwest 431 496 36,000  Level Washington Center
09:22AM 37.1047 -76.6569 216° Southwest 431 496 36,000  Level Washington Center
09:23AM 37.0100 -76.7442 216° Southwest 431 496 36,000  Level Washington Center
09:24AM 36.9153 -76.8311 216° Southwest 431 496 36,000  Level Washington Center
09:25AM 36.8183 -76.9178 216° Southwest 431 496 36,000  Level Washington Center
09:26AM 36.7236 -77.0042 216° Southwest 431 496 36,000  Level Washington Center
09:27AM 36.6308 -77.0931 218° Southwest 431 496 36,000  Level Washington Center
09:28AM 36.5356 -77.1817 217° Southwest 431 496 36,000  Level Washington Center
09:29AM 36.4406 -77.2703 217° Southwest 431 496 36,000  Level Washington Center
09:30AM 36.3475 -77.3558 217° Southwest 431 496 36,000  Level Washington Center
09:31AM 36.2544 -77.4517 220° Southwest 431 496 36,000  Level Washington Center
09:32AM 36.1758 -77.5244 217° Southwest 425 489 36,000  Level Washington Center
09:33AM 36.0786 -77.6144 217° Southwest 425 489 36,000  Level Washington Center
09:34AM 35.9831 -77.6994 216° Southwest 425 489 36,000  Level Washington Center
09:35AM 35.8858 -77.7764 213° Southwest 430 495 36,000  Level Washington Center
09:36AM 35.7842 -77.8581 213° Southwest 430 495 36,000 -240 Level Washington Center
09:37AM 35.6867 -77.9344 212° Southwest 430 495 35,600 -660 Descending Washington Center
09:38AM 35.5869 -78.0133 213° Southwest 430 495 34,700 -960 Descending Washington Center
09:39AM 35.4853 -78.0894 211° Southwest 430 495 33,700 -1,020 Descending Washington Center
09:40AM 35.3814 -78.1703 212° Southwest 430 495 32,700 -1,020 Descending Washington Center
09:41AM 35.2775 -78.2483 212° Southwest 440 506 31,700 -960 Descending Washington Center
09:42AM 35.1733 -78.3311 213° Southwest 445 512 30,800 -960 Descending Washington Center
09:43AM 35.0714 -78.4089 212° Southwest 445 512 29,800 -1,020 Descending Washington Center
09:44AM 34.9672 -78.4889 212° Southwest 445 512 28,800 -900 Descending Washington Center
09:45AM 34.8631 -78.5689 212° Southwest 445 512 28,000 -420 Descending Washington Center
09:46AM 34.7522 -78.6531 212° Southwest 445 512 28,000  Level Washington Center
09:48AM 34.6136 -78.7581 212° Southwest 444 511 28,000  Level Jacksonville Center
09:49AM 34.5017 -78.8439 212° Southwest 444 511 28,000  Level Jacksonville Center
09:50AM 34.4000 -78.9267 214° Southwest 444 511 28,000 -300 Level Jacksonville Center
09:51AM 34.2981 -79.0042 212° Southwest 444 511 27,500 -900 Descending Jacksonville Center
09:52AM 34.1872 -79.0619 203° Southwest 437 503 26,200 -1,380 Descending Jacksonville Center
09:53AM 34.0719 -79.1119 200° South 443 510 24,800 -1,140 Descending Jacksonville Center
09:54AM 33.9544 -79.1647 200° South 448 516 24,000 -1,020 Descending Jacksonville Center
09:55AM 33.8475 -79.2142 201° Southwest 435 501 22,800 -1,500 Descending Jacksonville Center
09:56AM 33.7447 -79.2711 205° Southwest 425 489 21,000 -1,800 Descending Jacksonville Center
09:57AM 33.6589 -79.3344 212° Southwest 397 457 19,200 -1,800 Descending Jacksonville Center
09:58AM 33.5753 -79.3975 212° Southwest 377 434 17,400 -1,860 Descending Jacksonville Center
09:59AM 33.4914 -79.4631 213° Southwest 366 421 15,500 -1,920 Descending Jacksonville Center
10:00AM 33.4075 -79.5236 211° Southwest 366 421 13,600 -1,920 Descending Jacksonville Center
10:01AM 33.3256 -79.5839 212° Southwest 355 409 11,700 -1,560 Descending Jacksonville Center
10:02AM 33.2542 -79.6411 214° Southwest 349 402 10,500 -1,200 Descending Jacksonville Center
10:03AM 33.2181 -79.7047 236° Southwest 270 311 9,300 -1,560 Descending Jacksonville Center
10:04AM 33.2161 -79.7892 268° West 240 276 7,400 -1,860 Descending Jacksonville Center
10:05AM 33.2139 -79.8686 268° West 240 276 5,600 -1,800 Descending Jacksonville Center
10:06AM 33.1733 -79.9197 227° Southwest 216 249 3,800 -1,200 Descending Jacksonville Center
10:07AM 33.1258 -79.9436 203° Southwest 192 221 3,200 -480 Descending Jacksonville Center
10:08AM 33.1164 -79.9908 257° West 163 188 2,900 -600 Descending Jacksonville Center
10:09AM 33.0767 -79.9797 167° South 114 131 2,000 -900 Descending Jacksonville Center